Margaret Moran — WQZ6557 — position and weather

sailwx.info

Track history (hours):
 
Tides and Currents Weather Stations Pressure Air Temp Water Temp Dewpoint Dewpoint Depression Visibility Wind Speed Wind Dir Waves Ship Positions

Margaret Moran

Owner: MORAN TOWING CORPORATION, New Canaan, CT. More information available from US FCC via Universal Licensing System and Coast Guard Vessel Documentation Center.

Last reported at 2018-Feb-21 17:29 UTC. Time now 2018-Feb-21 17:33 UTC.
Position N 40°38' W 074°08'.

Length 31 m; draft 4.6 m.

Type: Tug. MMSI: 366939820.

Date/timePositionNaut miles runAvg speedWind from/ knotsBaromVisibWave heightAir tempDewpointWater temp
2018-Feb-21 17:29N 40°38' W 074°08'0 0.0
2018-Feb-21 17:00N 40°38' W 074°08'0 0.0
2018-Feb-21 16:30N 40°38' W 074°08'0 0.1
2018-Feb-21 16:00N 40°38' W 074°08'3 5.8
2018-Feb-21 15:30N 40°41' W 074°08'1 1.9
2018-Feb-21 15:00N 40°40' W 074°08'2 3.7
2018-Feb-21 14:30N 40°39' W 074°08'0 0.3
2018-Feb-21 14:00N 40°38' W 074°08'0 0.0
2018-Feb-21 13:29N 40°38' W 074°08'1 2.8
2018-Feb-21 13:00N 40°40' W 074°09'1 3.0
2018-Feb-21 12:30N 40°41' W 074°08'0 0.7
2018-Feb-21 12:00N 40°41' W 074°09'2 4.3
2018-Feb-21 11:30N 40°39' W 074°09'3 5.3
2018-Feb-21 11:00N 40°39' W 074°06'2 4.6
2018-Feb-21 10:31N 40°38' W 074°03'3 6.9
2018-Feb-21 10:00N 40°39' W 074°07'0 0.5
2018-Feb-21 09:25N 40°38' W 074°08'0 0.0
2018-Feb-21 08:58N 40°38' W 074°08'0 0.3
2018-Feb-21 08:30N 40°39' W 074°08'2 4.5
2018-Feb-21 08:00N 40°39' W 074°05'0 0.6
2018-Feb-21 07:30N 40°39' W 074°05'2 3.6
2018-Feb-21 06:58N 40°38' W 074°08'0 0.0
2018-Feb-21 06:28N 40°38' W 074°08'0 0.0
2018-Feb-21 05:58N 40°38' W 074°08'0 0.0
2018-Feb-21 05:28N 40°38' W 074°08'0 0.0
2018-Feb-21 04:58N 40°38' W 074°08'0 0.0
2018-Feb-21 04:28N 40°38' W 074°08'1 2.5
2018-Feb-21 04:00N 40°39' W 074°09'2 4.8
2018-Feb-21 03:30N 40°42' W 074°08'1 1.2
2018-Feb-21 03:00N 40°41' W 074°08'2 3.4
2018-Feb-21 02:30N 40°39' W 074°09'1 1.8
2018-Feb-21 01:49N 40°38' W 074°08'1 2.9
2018-Feb-21 01:27N 40°39' W 074°09'2 4.2
2018-Feb-21 01:00N 40°41' W 074°08'1 1.3
2018-Feb-21 00:29N 40°41' W 074°09'2 4.8
2018-Feb-21 00:00N 40°39' W 074°09'4 8.5
2018-Feb-20 23:30N 40°40' W 074°04'1 2.7
2018-Feb-20 23:00N 40°40' W 074°05'3 5.1
2018-Feb-20 22:30N 40°39' W 074°08'0 0.4
2018-Feb-20 21:57N 40°38' W 074°08'0 0.0
2018-Feb-20 21:27N 40°38' W 074°08'0 0.0
2018-Feb-20 20:57N 40°38' W 074°08'2 3.4
2018-Feb-20 20:30N 40°39' W 074°06'2 4.9
2018-Feb-20 20:00N 40°39' W 074°09'2 3.9
2018-Feb-20 19:30N 40°41' W 074°08'0 0.2
2018-Feb-20 19:00N 40°40' W 074°08'2 3.9
2018-Feb-20 18:30N 40°39' W 074°08'0 0.3
2018-Feb-20 17:52N 40°38' W 074°08'2 1.4
2018-Feb-20 16:29N 40°39' W 074°05'1 2.6
2018-Feb-20 16:00N 40°40' W 074°05'0 0.1
2018-Feb-20 15:30N 40°40' W 074°05'2 4.2
2018-Feb-20 15:01N 40°39' W 074°03'0 0.1
2018-Feb-20 14:30N 40°39' W 074°03'0 0.0
2018-Feb-20 14:00N 40°39' W 074°03'0 0.1
2018-Feb-20 13:30N 40°39' W 074°03'0 0.1
2018-Feb-20 13:00N 40°39' W 074°03'0 0.1
2018-Feb-20 12:30N 40°39' W 074°03'0 0.0
2018-Feb-20 12:00N 40°39' W 074°03'0 0.3
2018-Feb-20 11:30N 40°39' W 074°03'0 0.5
2018-Feb-20 11:00N 40°39' W 074°03'1 2.1
2018-Feb-20 10:30N 40°38' W 074°03'3 6.7
2018-Feb-20 09:59N 40°39' W 074°08'0 0.2
2018-Feb-20 09:12N 40°38' W 074°08'0 0.0
2018-Feb-20 08:42N 40°38' W 074°08'0 0.0
2018-Feb-20 08:12N 40°38' W 074°08'0 0.0
2018-Feb-20 05:48N 40°38' W 074°08'0 0.0
2018-Feb-20 05:18N 40°38' W 074°08'0 0.0
2018-Feb-20 03:00N 40°38' W 074°08'0 0.0
2018-Feb-20 02:30N 40°38' W 074°08'0 0.0
2018-Feb-20 00:43N 40°38' W 074°08'1 5.4
2018-Feb-20 00:30N 40°39' W 074°09'1 2.4
2018-Feb-19 23:59N 40°41' W 074°09'1 1.4
2018-Feb-19 23:30N 40°40' W 074°08'2 2.7
2018-Feb-19 22:43N 40°39' W 074°06'1 4.6
2018-Feb-19 22:30N 40°39' W 074°05'2 3.8
2018-Feb-19 22:00N 40°38' W 074°03'2 3.3
2018-Feb-19 21:30N 40°36' W 074°02'2 4.2
2018-Feb-19 21:00N 40°38' W 074°03'4 8.6
2018-Feb-19 20:30N 40°39' W 074°09'2 3.5
2018-Feb-19 19:59N 40°41' W 074°09'1 2.5
2018-Feb-19 19:30N 40°40' W 074°08'2 3.4
2018-Feb-19 19:00N 40°39' W 074°07'3 6.0
2018-Feb-19 18:30N 40°38' W 074°03'3 6.5
2018-Feb-19 18:01N 40°39' W 074°07'1 0.9
2018-Feb-19 17:28N 40°38' W 074°08'0 0.0
2018-Feb-19 15:57N 40°38' W 074°08'0 0.0
2018-Feb-19 14:48N 40°38' W 074°08'2 4.6
2018-Feb-19 14:28N 40°40' W 074°08'3 5.5
2018-Feb-19 14:00N 40°42' W 074°07'0 0.2
2018-Feb-19 13:31N 40°42' W 074°07'0 1.0
2018-Feb-19 13:00N 40°43' W 074°07'1 1.5
2018-Feb-19 12:30N 40°42' W 074°07'3 6.2
2018-Feb-19 12:00N 40°39' W 074°09'1 2.1
2018-Feb-19 11:30N 40°39' W 074°08'0 0.1
2018-Feb-19 10:57N 40°38' W 074°08'1 2.5
2018-Feb-19 10:30N 40°39' W 074°09'1 1.8
2018-Feb-19 10:00N 40°40' W 074°09'1 1.3
2018-Feb-19 09:28N 40°40' W 074°08'0 0.0
2018-Feb-19 08:58N 40°40' W 074°08'0 0.0
2018-Feb-19 08:25N 40°40' W 074°08'1 1.6
2018-Feb-19 08:00N 40°40' W 074°09'2 3.0
2018-Feb-19 07:30N 40°38' W 074°08'0 0.0
2018-Feb-19 07:00N 40°38' W 074°08'0 0.0
2018-Feb-19 06:27N 40°38' W 074°08'0 0.0
2018-Feb-19 05:06N 40°38' W 074°08'0 0.0
2018-Feb-19 04:51N 40°38' W 074°08'0 0.0
2018-Feb-19 04:21N 40°38' W 074°08'0 0.0
2018-Feb-19 03:57N 40°38' W 074°08'1 2.3
2018-Feb-19 03:30N 40°39' W 074°09'3 5.4
2018-Feb-19 03:00N 40°42' W 074°08'0 0.7
2018-Feb-19 02:30N 40°41' W 074°08'2 4.3
2018-Feb-19 01:59N 40°39' W 074°09'2 3.4
2018-Feb-19 01:30N 40°39' W 074°07'3 5.8
2018-Feb-19 01:00N 40°38' W 074°03'3 6.1
2018-Feb-19 00:30N 40°39' W 074°07'2 3.6
2018-Feb-19 00:00N 40°40' W 074°08'1 2.2
2018-Feb-18 23:29N 40°41' W 074°08'0 0.1
2018-Feb-18 23:00N 40°41' W 074°08'0 0.0
2018-Feb-18 22:30N 40°41' W 074°08'2 3.1
2018-Feb-18 21:59N 40°40' W 074°09'1 1.1
2018-Feb-18 21:29N 40°39' W 074°09'2 4.6
2018-Feb-18 21:00N 40°39' W 074°06'3 5.1
2018-Feb-18 20:30N 40°38' W 074°03'4 7.6
2018-Feb-18 20:00N 40°38' W 074°08'0 0.1
2018-Feb-18 19:25N 40°38' W 074°08'0 0.0
2018-Feb-18 18:49N 40°38' W 074°08'0 0.0
2018-Feb-18 17:17N 40°38' W 074°08'1 3.8
2018-Feb-18 17:00N 40°39' W 074°06'4 8.2
2018-Feb-18 16:31N 40°36' W 074°03'611.0
2018-Feb-18 16:00N 40°31' W 073°59'3 5.8
2018-Feb-18 15:29N 40°33' W 074°02'4 8.8
2018-Feb-18 14:59N 40°38' W 074°03'0 0.6
2018-Feb-18 14:30N 40°38' W 074°04'0 0.5
2018-Feb-18 13:58N 40°38' W 074°04'0 0.0
2018-Feb-18 13:22N 40°38' W 074°04'0 0.0
2018-Feb-18 12:58N 40°38' W 074°04'1 1.1
2018-Feb-18 12:30N 40°38' W 074°03'0 0.1
2018-Feb-18 12:00N 40°38' W 074°03'0 0.2
2018-Feb-18 11:30N 40°37' W 074°03'0 0.1
2018-Feb-18 11:00N 40°37' W 074°03'0 0.2
2018-Feb-18 10:30N 40°37' W 074°04'1 2.5
2018-Feb-18 10:00N 40°36' W 074°03'4 8.6
2018-Feb-18 09:30N 40°32' W 074°02'10 5.0
2018-Feb-18 07:33N 40°33' W 074°15'2 5.6
2018-Feb-18 07:12N 40°34' W 074°13'1 5.8
2018-Feb-18 07:00N 40°35' W 074°13'3 5.5
2018-Feb-18 06:30N 40°38' W 074°12'0 0.3
2018-Feb-18 05:59N 40°38' W 074°12'2 4.7
2018-Feb-18 05:30N 40°39' W 074°09'1 1.9
2018-Feb-18 04:50N 40°38' W 074°08'0 0.0
2018-Feb-18 04:29N 40°38' W 074°08'0 0.0
2018-Feb-18 03:17N 40°38' W 074°08'0 0.0
2018-Feb-18 02:53N 40°38' W 074°08'0 0.0
2018-Feb-18 02:30N 40°38' W 074°08'4 7.9
2018-Feb-18 01:59N 40°37' W 074°03'510.2
2018-Feb-18 01:29N 40°32' W 074°01'4 8.6
2018-Feb-18 01:00N 40°36' W 074°02'1 2.2
2018-Feb-18 00:30N 40°37' W 074°03'3 6.5
2018-Feb-18 00:00N 40°34' W 074°02'3 5.5
2018-Feb-17 23:30N 40°31' W 073°60'0 0.4
2018-Feb-17 23:00N 40°31' W 073°60'2 3.2
2018-Feb-17 22:29N 40°32' W 074°01'4 8.3
2018-Feb-17 22:00N 40°36' W 074°03'4 8.4
2018-Feb-17 21:30N 40°39' W 074°07'0 0.9
2018-Feb-17 20:59N 40°38' W 074°08'0 0.0
2018-Feb-17 20:20N 40°38' W 074°08'0 0.0
2018-Feb-17 19:59N 40°38' W 074°08'0 0.0
2018-Feb-17 19:26N 40°38' W 074°08'0 0.0
2018-Feb-17 18:59N 40°38' W 074°08'0 0.0
2018-Feb-17 18:29N 40°38' W 074°08'0 0.0
2018-Feb-17 17:59N 40°38' W 074°08'0 0.0
2018-Feb-17 17:29N 40°38' W 074°08'0 0.0
2018-Feb-17 16:56N 40°38' W 074°08'0 0.0
2018-Feb-17 16:14N 40°38' W 074°08'0 0.0
2018-Feb-17 15:56N 40°38' W 074°08'0 0.0
2018-Feb-17 15:29N 40°38' W 074°08'0 0.0
2018-Feb-17 14:53N 40°38' W 074°08'0 0.0
2018-Feb-17 14:23N 40°38' W 074°08'0 0.0
2018-Feb-17 13:59N 40°38' W 074°08'0 0.0
2018-Feb-17 13:29N 40°38' W 074°08'0 0.0
2018-Feb-17 12:56N 40°38' W 074°08'1 3.4
2018-Feb-17 12:30N 40°40' W 074°09'1 2.2
2018-Feb-17 12:00N 40°41' W 074°09'1 2.3
2018-Feb-17 11:30N 40°40' W 074°08'1 2.6
2018-Feb-17 11:00N 40°39' W 074°09'3 6.8
2018-Feb-17 10:30N 40°39' W 074°04'3 5.5
2018-Feb-17 10:00N 40°37' W 074°03'1 1.1
2018-Feb-17 09:30N 40°36' W 074°02'2 3.1
2018-Feb-17 09:00N 40°38' W 074°03'4 6.3
2018-Feb-17 08:26N 40°38' W 074°08'0 0.0
2018-Feb-17 07:59N 40°38' W 074°08'0 0.0
2018-Feb-17 07:29N 40°38' W 074°08'0 0.0
2018-Feb-17 06:59N 40°38' W 074°08'0 0.0
2018-Feb-17 06:26N 40°38' W 074°08'2 4.0
2018-Feb-17 06:00N 40°40' W 074°08'2 3.2
2018-Feb-17 05:30N 40°42' W 074°08'0 0.2
2018-Feb-17 04:59N 40°42' W 074°09'0 0.0
2018-Feb-17 04:29N 40°42' W 074°09'0 0.0
2018-Feb-17 03:59N 40°42' W 074°09'0 0.0
2018-Feb-17 03:29N 40°42' W 074°09'0 0.4
2018-Feb-17 03:00N 40°42' W 074°08'0 0.2
2018-Feb-17 02:30N 40°42' W 074°08'1 1.4
2018-Feb-17 02:00N 40°41' W 074°08'2 4.3
2018-Feb-17 01:30N 40°39' W 074°09'1 1.7
2018-Feb-17 00:54N 40°38' W 074°08'0 0.0
2018-Feb-17 00:30N 40°38' W 074°08'0 0.0
2018-Feb-16 23:54N 40°38' W 074°08'1 3.3
2018-Feb-16 23:30N 40°39' W 074°06'5 9.4
2018-Feb-16 23:00N 40°41' W 074°01'1 1.8
2018-Feb-16 22:30N 40°41' W 074°02'4 7.8
2018-Feb-16 22:00N 40°39' W 074°06'1 2.2
2018-Feb-16 21:27N 40°38' W 074°08'0 0.0
2018-Feb-16 20:45N 40°38' W 074°08'0 0.0
2018-Feb-16 19:27N 40°38' W 074°08'0 0.0
2018-Feb-16 18:57N 40°38' W 074°08'0 0.0
2018-Feb-16 18:21N 40°38' W 074°08'0 0.0
2018-Feb-16 17:57N 40°38' W 074°08'0 0.0
2018-Feb-16 17:21N 40°38' W 074°08'0 0.0
2018-Feb-16 16:54N 40°38' W 074°08'0 0.0
2018-Feb-16 16:21N 40°38' W 074°08'0 0.0
2018-Feb-16 15:15N 40°38' W 074°08'0 0.0
2018-Feb-16 14:55N 40°38' W 074°08'3 7.6
2018-Feb-16 14:30N 40°38' W 074°12'6 1.5
2018-Feb-16 10:37N 40°33' W 074°15'2 8.8
2018-Feb-16 10:21N 40°34' W 074°13'4 9.9
2018-Feb-16 09:59N 40°38' W 074°12'3 7.1
2018-Feb-16 09:30N 40°38' W 074°08'0 0.0
2018-Feb-16 09:00N 40°38' W 074°08'0 0.0
2018-Feb-16 08:21N 40°38' W 074°08'0 0.0
2018-Feb-16 08:00N 40°38' W 074°08'0 0.0
2018-Feb-16 07:30N 40°38' W 074°08'0 0.0
2018-Feb-16 07:00N 40°38' W 074°08'0 0.0
2018-Feb-16 06:30N 40°38' W 074°08'0 0.0
2018-Feb-16 04:39N 40°38' W 074°08'0 0.0
2018-Feb-16 04:27N 40°38' W 074°08'0 0.0
2018-Feb-16 04:00N 40°38' W 074°08'0 0.0
2018-Feb-16 03:27N 40°38' W 074°08'0 0.0
2018-Feb-16 03:00N 40°38' W 074°08'0 0.0
2018-Feb-16 02:24N 40°38' W 074°08'0 0.0
2018-Feb-16 02:00N 40°38' W 074°08'0 0.0
2018-Feb-16 01:27N 40°38' W 074°08'3 6.4
2018-Feb-16 01:00N 40°38' W 074°12'1 1.7
2018-Feb-16 00:30N 40°38' W 074°12'0 0.9
2018-Feb-16 00:00N 40°38' W 074°12'3 5.8
2018-Feb-15 23:25N 40°39' W 074°07'2 5.6
2018-Feb-15 23:00N 40°39' W 074°04'1 2.5
2018-Feb-15 22:30N 40°38' W 074°04'0 0.1
2018-Feb-15 22:00N 40°38' W 074°04'1 2.8
2018-Feb-15 21:30N 40°39' W 074°05'3 6.5
2018-Feb-15 21:00N 40°39' W 074°09'3 5.1
2018-Feb-15 20:28N 40°41' W 074°08'0 0.9
2018-Feb-15 20:00N 40°42' W 074°08'3 5.9
2018-Feb-15 19:30N 40°39' W 074°09'1 1.7
2018-Feb-15 18:56N 40°38' W 074°08'0 0.0
2018-Feb-15 18:29N 40°38' W 074°08'0 0.0
2018-Feb-15 17:59N 40°38' W 074°08'0 0.0
2018-Feb-15 17:29N 40°38' W 074°08'0 0.0
2018-Feb-15 17:00N 40°38' W 074°08'2 3.8
2018-Feb-15 16:28N 40°40' W 074°08'1 2.1
2018-Feb-15 16:00N 40°41' W 074°09'1 2.0
2018-Feb-15 15:29N 40°41' W 074°08'2 4.0
2018-Feb-15 14:59N 40°39' W 074°07'0 0.6
2018-Feb-15 14:24N 40°38' W 074°08'0 0.0
2018-Feb-15 13:54N 40°38' W 074°08'0 0.0
2018-Feb-15 13:24N 40°38' W 074°08'0 0.0
2018-Feb-15 12:54N 40°38' W 074°08'0 0.0
2018-Feb-15 12:30N 40°38' W 074°08'0 0.0
2018-Feb-15 12:00N 40°38' W 074°08'3 5.1
2018-Feb-15 11:29N 40°39' W 074°11'0 0.5
2018-Feb-15 11:00N 40°38' W 074°11'2 4.1
2018-Feb-15 10:30N 40°39' W 074°09'2 4.9
2018-Feb-15 10:00N 40°39' W 074°06'2 4.4
2018-Feb-15 09:30N 40°38' W 074°03'4 7.6
2018-Feb-15 09:00N 40°38' W 074°08'0 0.1
2018-Feb-15 08:29N 40°38' W 074°08'0 0.0
2018-Feb-15 07:59N 40°38' W 074°08'1 2.0
2018-Feb-15 07:30N 40°39' W 074°07'0 1.0
2018-Feb-15 07:00N 40°39' W 074°06'0 0.0
2018-Feb-15 06:25N 40°39' W 074°06'1 3.3
2018-Feb-15 05:59N 40°38' W 074°08'0 0.0
2018-Feb-15 05:23N 40°38' W 074°08'0 0.0
2018-Feb-15 04:59N 40°38' W 074°08'0 0.0
2018-Feb-15 04:20N 40°38' W 074°08'0 0.0
2018-Feb-15 03:53N 40°38' W 074°08'0 0.0
2018-Feb-15 03:26N 40°38' W 074°08'0 0.0
2018-Feb-15 02:59N 40°38' W 074°08'0 0.0
2018-Feb-15 02:23N 40°38' W 074°08'0 0.0
2018-Feb-15 02:00N 40°38' W 074°08'4 7.5
2018-Feb-15 01:30N 40°37' W 074°12'2 3.3
2018-Feb-15 01:00N 40°35' W 074°13'0 0.0
2018-Feb-15 00:30N 40°35' W 074°13'0 0.4
2018-Feb-14 23:56N 40°35' W 074°12'2 3.4
2018-Feb-14 23:29N 40°37' W 074°12'2 4.3
2018-Feb-14 23:00N 40°39' W 074°11'3 5.3
2018-Feb-14 22:29N 40°39' W 074°08'3 5.5
2018-Feb-14 22:00N 40°39' W 074°04'2 3.1
2018-Feb-14 21:30N 40°39' W 074°06'2 3.7
2018-Feb-14 20:58N 40°40' W 074°08'1 2.7
2018-Feb-14 20:30N 40°41' W 074°09'1 1.7
2018-Feb-14 20:00N 40°40' W 074°08'2 3.7
2018-Feb-14 19:28N 40°39' W 074°08'3 6.8
2018-Feb-14 19:00N 40°38' W 074°04'1 2.7
2018-Feb-14 18:30N 40°37' W 074°03'2 5.0
2018-Feb-14 18:00N 40°40' W 074°03'4 8.2
2018-Feb-14 17:30N 40°38' W 074°08'0 0.0
2018-Feb-14 16:59N 40°38' W 074°08'2 5.1
2018-Feb-14 16:30N 40°41' W 074°08'1 1.8
2018-Feb-14 16:00N 40°42' W 074°08'2 4.4
2018-Feb-14 15:30N 40°40' W 074°09'1 2.3
2018-Feb-14 14:58N 40°38' W 074°08'0 0.0
2018-Feb-14 14:28N 40°38' W 074°08'0 0.0
2018-Feb-14 13:58N 40°38' W 074°08'0 0.0
2018-Feb-14 13:28N 40°38' W 074°08'0 0.0
2018-Feb-14 12:50N 40°38' W 074°08'2 5.3
2018-Feb-14 12:30N 40°40' W 074°08'1 1.4
2018-Feb-14 12:00N 40°41' W 074°09'2 4.0
2018-Feb-14 11:30N 40°39' W 074°09'2 4.3
2018-Feb-14 11:00N 40°39' W 074°06'2 4.7
2018-Feb-14 10:30N 40°38' W 074°03'1 2.2
2018-Feb-14 10:00N 40°37' W 074°03'3 6.4
2018-Feb-14 09:30N 40°39' W 074°06'2 4.3
2018-Feb-14 09:00N 40°40' W 074°09'0 0.7
2018-Feb-14 08:29N 40°40' W 074°09'1 3.1
2018-Feb-14 08:00N 40°39' W 074°09'1 1.6
2018-Feb-14 07:28N 40°38' W 074°08'0 0.0
2018-Feb-14 06:58N 40°38' W 074°08'0 0.0
2018-Feb-14 05:56N 40°38' W 074°08'2 4.9
2018-Feb-14 05:30N 40°39' W 074°05'0 0.4
2018-Feb-14 05:00N 40°39' W 074°05'2 4.2
2018-Feb-14 04:30N 40°39' W 074°08'0 0.1
2018-Feb-14 03:57N 40°38' W 074°08'0 0.0
2018-Feb-14 03:27N 40°38' W 074°08'0 0.0
2018-Feb-14 02:57N 40°38' W 074°08'0 0.0
2018-Feb-14 02:30N 40°38' W 074°08'0 0.0
2018-Feb-14 00:06N 40°38' W 074°08'0 0.0
2018-Feb-13 23:57N 40°38' W 074°08'0 0.0
2018-Feb-13 23:30N 40°38' W 074°08'0 0.0
2018-Feb-13 23:00N 40°38' W 074°08'0 0.0
2018-Feb-13 22:30N 40°38' W 074°08'3 5.2
2018-Feb-13 22:00N 40°41' W 074°08'0 0.0
2018-Feb-13 21:30N 40°41' W 074°08'0 0.0
2018-Feb-13 21:00N 40°41' W 074°08'1 1.1
2018-Feb-13 20:29N 40°41' W 074°08'2 4.1
2018-Feb-13 20:00N 40°39' W 074°09'1 1.6
2018-Feb-13 19:30N 40°38' W 074°08'0 0.0
2018-Feb-13 19:00N 40°38' W 074°08'2 4.9
2018-Feb-13 18:30N 40°41' W 074°09'0 0.5
2018-Feb-13 18:00N 40°41' W 074°08'0 0.1
2018-Feb-13 17:30N 40°41' W 074°08'3 5.2
2018-Feb-13 17:00N 40°38' W 074°08'0 0.0
2018-Feb-13 15:59N 40°38' W 074°08'0 0.0
2018-Feb-13 15:29N 40°38' W 074°08'0 0.0
2018-Feb-13 14:47N 40°38' W 074°08'0 0.0
2018-Feb-13 14:29N 40°38' W 074°08'0 0.0
2018-Feb-13 13:59N 40°38' W 074°08'0 0.0
2018-Feb-13 13:26N 40°38' W 074°08'0 0.0
2018-Feb-13 13:00N 40°38' W 074°08'0 0.0
2018-Feb-13 12:30N 40°38' W 074°08'2 4.3
2018-Feb-13 12:00N 40°39' W 074°05'0 0.3
2018-Feb-13 11:31N 40°39' W 074°05'1 2.3
2018-Feb-13 11:00N 40°39' W 074°07'0 0.3
2018-Feb-13 10:27N 40°39' W 074°07'0 0.1
2018-Feb-13 10:00N 40°39' W 074°07'2 3.1
2018-Feb-13 09:30N 40°38' W 074°09'2 4.2
2018-Feb-13 09:00N 40°41' W 074°09'2 3.7
2018-Feb-13 08:30N 40°39' W 074°09'1 1.9
2018-Feb-13 07:59N 40°38' W 074°08'0 0.0
2018-Feb-13 07:26N 40°38' W 074°08'0 0.0
2018-Feb-13 06:56N 40°38' W 074°08'0 0.0
2018-Feb-13 06:26N 40°38' W 074°08'0 0.0
2018-Feb-13 05:55N 40°38' W 074°08'0 0.0
2018-Feb-13 05:25N 40°38' W 074°08'0 0.0
2018-Feb-13 04:59N 40°38' W 074°08'0 0.0
2018-Feb-13 04:14N 40°38' W 074°08'0 0.0
2018-Feb-13 03:59N 40°38' W 074°08'0 0.0
2018-Feb-13 03:26N 40°38' W 074°08'0 0.0
2018-Feb-13 02:59N 40°38' W 074°08'1 2.2
2018-Feb-13 02:30N 40°39' W 074°09'1 1.7
2018-Feb-13 02:00N 40°40' W 074°09'2 3.8
2018-Feb-13 01:30N 40°39' W 074°07'3 5.7
2018-Feb-13 01:00N 40°40' W 074°04'1 1.5
2018-Feb-13 00:30N 40°41' W 074°04'0 0.2
2018-Feb-13 00:00N 40°41' W 074°04'1 1.6
2018-Feb-12 23:30N 40°41' W 074°04'2 3.4
2018-Feb-12 23:00N 40°39' W 074°05'0 0.1
2018-Feb-12 22:29N 40°39' W 074°05'1 1.1
2018-Feb-12 22:00N 40°39' W 074°06'2 3.4
2018-Feb-12 21:29N 40°39' W 074°08'1 2.9
2018-Feb-12 21:00N 40°40' W 074°08'1 2.7
2018-Feb-12 20:28N 40°41' W 074°08'2 4.0
2018-Feb-12 20:00N 40°39' W 074°09'1 2.0
2018-Feb-12 19:24N 40°38' W 074°08'0 0.0
2018-Feb-12 18:59N 40°38' W 074°08'0 0.0
2018-Feb-12 18:27N 40°38' W 074°08'2 3.4
2018-Feb-12 18:00N 40°40' W 074°09'0 0.8
2018-Feb-12 17:30N 40°39' W 074°09'3 5.3
2018-Feb-12 17:00N 40°39' W 074°05'4 7.5
2018-Feb-12 16:30N 40°36' W 074°02'1 1.2
2018-Feb-12 16:00N 40°36' W 074°02'0 0.1
2018-Feb-12 15:30N 40°36' W 074°02'3 5.8
2018-Feb-12 15:01N 40°38' W 074°04'3 5.9
2018-Feb-12 14:28N 40°38' W 074°08'0 0.0
2018-Feb-12 13:58N 40°38' W 074°08'0 0.0
2018-Feb-12 13:16N 40°38' W 074°08'2 5.6
2018-Feb-12 12:59N 40°39' W 074°06'510.0
2018-Feb-12 12:30N 40°41' W 074°00'1 1.4
2018-Feb-12 12:01N 40°41' W 074°01'2 4.4
2018-Feb-12 11:30N 40°40' W 074°03'3 6.7
2018-Feb-12 11:00N 40°38' W 074°08'0 0.1
2018-Feb-12 10:27N 40°38' W 074°08'0 0.0
2018-Feb-12 10:00N 40°38' W 074°08'0 0.0
2018-Feb-12 09:30N 40°38' W 074°08'0 0.0
2018-Feb-12 09:00N 40°38' W 074°08'0 0.0
2018-Feb-12 08:30N 40°38' W 074°08'0 0.0
2018-Feb-12 08:00N 40°38' W 074°08'0 0.0
2018-Feb-12 07:30N 40°38' W 074°08'0 0.0
2018-Feb-12 07:00N 40°38' W 074°08'0 0.0
2018-Feb-12 06:30N 40°38' W 074°08'0 0.0
2018-Feb-12 06:00N 40°38' W 074°08'0 0.0
2018-Feb-12 05:27N 40°38' W 074°08'0 0.0
2018-Feb-12 05:00N 40°38' W 074°08'0 0.0
2018-Feb-12 04:30N 40°38' W 074°08'0 0.1
2018-Feb-12 04:00N 40°38' W 074°08'1 2.0
2018-Feb-12 03:30N 40°39' W 074°07'1 1.7
2018-Feb-12 02:54N 40°38' W 074°08'0 0.0
2018-Feb-12 02:30N 40°38' W 074°08'0 0.0
2018-Feb-12 02:00N 40°38' W 074°08'0 0.0
2018-Feb-12 01:30N 40°38' W 074°08'0 0.0
2018-Feb-12 00:54N 40°38' W 074°08'0 0.0
2018-Feb-12 00:24N 40°38' W 074°08'1 1.6
2018-Feb-12 00:00N 40°39' W 074°07'2 3.4
2018-Feb-11 23:30N 40°40' W 074°08'1 1.3
2018-Feb-11 23:00N 40°41' W 074°09'1 2.6
2018-Feb-11 22:30N 40°39' W 074°09'1 1.8
2018-Feb-11 21:52N 40°38' W 074°08'0 0.0
2018-Feb-11 21:28N 40°38' W 074°08'0 0.0
2018-Feb-11 20:58N 40°38' W 074°08'0 0.0
2018-Feb-11 20:19N 40°38' W 074°08'0 0.0
2018-Feb-11 19:55N 40°38' W 074°08'0 0.0
2018-Feb-11 19:28N 40°38' W 074°08'0 0.0
2018-Feb-11 18:58N 40°38' W 074°08'0 0.0
2018-Feb-11 18:28N 40°38' W 074°08'0 0.0
2018-Feb-11 17:58N 40°38' W 074°08'  
Track history (hours):
 
Tides and Currents Weather Stations Pressure Air Temp Water Temp Dewpoint Dewpoint Depression Visibility Wind Speed Wind Dir Waves Ship Positions

Margaret Moran

Owner: MORAN TOWING CORPORATION, New Canaan, CT. More information available from US FCC via Universal Licensing System and Coast Guard Vessel Documentation Center.

Last reported at 2018-Feb-21 17:29 UTC. Time now 2018-Feb-21 17:33 UTC.
Position N 40°38' W 074°08'.

Length 31 m; draft 4.6 m.

Type: Tug. MMSI: 366939820.

Date/timePositionNaut miles runAvg speedWind from/ knotsBaromVisibWave heightAir tempDewpointWater temp
2018-Feb-21 17:29N 40°38' W 074°08'0 0.0
2018-Feb-21 17:00N 40°38' W 074°08'0 0.0
2018-Feb-21 16:30N 40°38' W 074°08'0 0.1
2018-Feb-21 16:00N 40°38' W 074°08'3 5.8
2018-Feb-21 15:30N 40°41' W 074°08'1 1.9
2018-Feb-21 15:00N 40°40' W 074°08'2 3.7
2018-Feb-21 14:30N 40°39' W 074°08'0 0.3
2018-Feb-21 14:00N 40°38' W 074°08'0 0.0
2018-Feb-21 13:29N 40°38' W 074°08'1 2.8
2018-Feb-21 13:00N 40°40' W 074°09'1 3.0
2018-Feb-21 12:30N 40°41' W 074°08'0 0.7
2018-Feb-21 12:00N 40°41' W 074°09'2 4.3
2018-Feb-21 11:30N 40°39' W 074°09'3 5.3
2018-Feb-21 11:00N 40°39' W 074°06'2 4.6
2018-Feb-21 10:31N 40°38' W 074°03'3 6.9
2018-Feb-21 10:00N 40°39' W 074°07'0 0.5
2018-Feb-21 09:25N 40°38' W 074°08'0 0.0
2018-Feb-21 08:58N 40°38' W 074°08'0 0.3
2018-Feb-21 08:30N 40°39' W 074°08'2 4.5
2018-Feb-21 08:00N 40°39' W 074°05'0 0.6
2018-Feb-21 07:30N 40°39' W 074°05'2 3.6
2018-Feb-21 06:58N 40°38' W 074°08'0 0.0
2018-Feb-21 06:28N 40°38' W 074°08'0 0.0
2018-Feb-21 05:58N 40°38' W 074°08'0 0.0
2018-Feb-21 05:28N 40°38' W 074°08'0 0.0
2018-Feb-21 04:58N 40°38' W 074°08'0 0.0
2018-Feb-21 04:28N 40°38' W 074°08'1 2.5
2018-Feb-21 04:00N 40°39' W 074°09'2 4.8
2018-Feb-21 03:30N 40°42' W 074°08'1 1.2
2018-Feb-21 03:00N 40°41' W 074°08'2 3.4
2018-Feb-21 02:30N 40°39' W 074°09'1 1.8
2018-Feb-21 01:49N 40°38' W 074°08'1 2.9
2018-Feb-21 01:27N 40°39' W 074°09'2 4.2
2018-Feb-21 01:00N 40°41' W 074°08'1 1.3
2018-Feb-21 00:29N 40°41' W 074°09'2 4.8
2018-Feb-21 00:00N 40°39' W 074°09'4 8.5
2018-Feb-20 23:30N 40°40' W 074°04'1 2.7
2018-Feb-20 23:00N 40°40' W 074°05'3 5.1
2018-Feb-20 22:30N 40°39' W 074°08'0 0.4
2018-Feb-20 21:57N 40°38' W 074°08'0 0.0
2018-Feb-20 21:27N 40°38' W 074°08'0 0.0
2018-Feb-20 20:57N 40°38' W 074°08'2 3.4
2018-Feb-20 20:30N 40°39' W 074°06'2 4.9
2018-Feb-20 20:00N 40°39' W 074°09'2 3.9
2018-Feb-20 19:30N 40°41' W 074°08'0 0.2
2018-Feb-20 19:00N 40°40' W 074°08'2 3.9
2018-Feb-20 18:30N 40°39' W 074°08'0 0.3
2018-Feb-20 17:52N 40°38' W 074°08'2 1.4
2018-Feb-20 16:29N 40°39' W 074°05'1 2.6
2018-Feb-20 16:00N 40°40' W 074°05'0 0.1
2018-Feb-20 15:30N 40°40' W 074°05'2 4.2
2018-Feb-20 15:01N 40°39' W 074°03'0 0.1
2018-Feb-20 14:30N 40°39' W 074°03'0 0.0
2018-Feb-20 14:00N 40°39' W 074°03'0 0.1
2018-Feb-20 13:30N 40°39' W 074°03'0 0.1
2018-Feb-20 13:00N 40°39' W 074°03'0 0.1
2018-Feb-20 12:30N 40°39' W 074°03'0 0.0
2018-Feb-20 12:00N 40°39' W 074°03'0 0.3
2018-Feb-20 11:30N 40°39' W 074°03'0 0.5
2018-Feb-20 11:00N 40°39' W 074°03'1 2.1
2018-Feb-20 10:30N 40°38' W 074°03'3 6.7
2018-Feb-20 09:59N 40°39' W 074°08'0 0.2
2018-Feb-20 09:12N 40°38' W 074°08'0 0.0
2018-Feb-20 08:42N 40°38' W 074°08'0 0.0
2018-Feb-20 08:12N 40°38' W 074°08'0 0.0
2018-Feb-20 05:48N 40°38' W 074°08'0 0.0
2018-Feb-20 05:18N 40°38' W 074°08'0 0.0
2018-Feb-20 03:00N 40°38' W 074°08'0 0.0
2018-Feb-20 02:30N 40°38' W 074°08'0 0.0
2018-Feb-20 00:43N 40°38' W 074°08'1 5.4
2018-Feb-20 00:30N 40°39' W 074°09'1 2.4
2018-Feb-19 23:59N 40°41' W 074°09'1 1.4
2018-Feb-19 23:30N 40°40' W 074°08'2 2.7
2018-Feb-19 22:43N 40°39' W 074°06'1 4.6
2018-Feb-19 22:30N 40°39' W 074°05'2 3.8
2018-Feb-19 22:00N 40°38' W 074°03'2 3.3
2018-Feb-19 21:30N 40°36' W 074°02'2 4.2
2018-Feb-19 21:00N 40°38' W 074°03'4 8.6
2018-Feb-19 20:30N 40°39' W 074°09'2 3.5
2018-Feb-19 19:59N 40°41' W 074°09'1 2.5
2018-Feb-19 19:30N 40°40' W 074°08'2 3.4
2018-Feb-19 19:00N 40°39' W 074°07'3 6.0
2018-Feb-19 18:30N 40°38' W 074°03'3 6.5
2018-Feb-19 18:01N 40°39' W 074°07'1 0.9
2018-Feb-19 17:28N 40°38' W 074°08'0 0.0
2018-Feb-19 15:57N 40°38' W 074°08'0 0.0
2018-Feb-19 14:48N 40°38' W 074°08'2 4.6
2018-Feb-19 14:28N 40°40' W 074°08'3 5.5
2018-Feb-19 14:00N 40°42' W 074°07'0 0.2
2018-Feb-19 13:31N 40°42' W 074°07'0 1.0
2018-Feb-19 13:00N 40°43' W 074°07'1 1.5
2018-Feb-19 12:30N 40°42' W 074°07'3 6.2
2018-Feb-19 12:00N 40°39' W 074°09'1 2.1
2018-Feb-19 11:30N 40°39' W 074°08'0 0.1
2018-Feb-19 10:57N 40°38' W 074°08'1 2.5
2018-Feb-19 10:30N 40°39' W 074°09'1 1.8
2018-Feb-19 10:00N 40°40' W 074°09'1 1.3
2018-Feb-19 09:28N 40°40' W 074°08'0 0.0
2018-Feb-19 08:58N 40°40' W 074°08'0 0.0
2018-Feb-19 08:25N 40°40' W 074°08'1 1.6
2018-Feb-19 08:00N 40°40' W 074°09'2 3.0
2018-Feb-19 07:30N 40°38' W 074°08'0 0.0
2018-Feb-19 07:00N 40°38' W 074°08'0 0.0
2018-Feb-19 06:27N 40°38' W 074°08'0 0.0
2018-Feb-19 05:06N 40°38' W 074°08'0 0.0
2018-Feb-19 04:51N 40°38' W 074°08'0 0.0
2018-Feb-19 04:21N 40°38' W 074°08'0 0.0
2018-Feb-19 03:57N 40°38' W 074°08'1 2.3
2018-Feb-19 03:30N 40°39' W 074°09'3 5.4
2018-Feb-19 03:00N 40°42' W 074°08'0 0.7
2018-Feb-19 02:30N 40°41' W 074°08'2 4.3
2018-Feb-19 01:59N 40°39' W 074°09'2 3.4
2018-Feb-19 01:30N 40°39' W 074°07'3 5.8
2018-Feb-19 01:00N 40°38' W 074°03'3 6.1
2018-Feb-19 00:30N 40°39' W 074°07'2 3.6
2018-Feb-19 00:00N 40°40' W 074°08'1 2.2
2018-Feb-18 23:29N 40°41' W 074°08'0 0.1
2018-Feb-18 23:00N 40°41' W 074°08'0 0.0
2018-Feb-18 22:30N 40°41' W 074°08'2 3.1
2018-Feb-18 21:59N 40°40' W 074°09'1 1.1
2018-Feb-18 21:29N 40°39' W 074°09'2 4.6
2018-Feb-18 21:00N 40°39' W 074°06'3 5.1
2018-Feb-18 20:30N 40°38' W 074°03'4 7.6
2018-Feb-18 20:00N 40°38' W 074°08'0 0.1
2018-Feb-18 19:25N 40°38' W 074°08'0 0.0
2018-Feb-18 18:49N 40°38' W 074°08'0 0.0
2018-Feb-18 17:17N 40°38' W 074°08'1 3.8
2018-Feb-18 17:00N 40°39' W 074°06'4 8.2
2018-Feb-18 16:31N 40°36' W 074°03'611.0
2018-Feb-18 16:00N 40°31' W 073°59'3 5.8
2018-Feb-18 15:29N 40°33' W 074°02'4 8.8
2018-Feb-18 14:59N 40°38' W 074°03'0 0.6
2018-Feb-18 14:30N 40°38' W 074°04'0 0.5
2018-Feb-18 13:58N 40°38' W 074°04'0 0.0
2018-Feb-18 13:22N 40°38' W 074°04'0 0.0
2018-Feb-18 12:58N 40°38' W 074°04'1 1.1
2018-Feb-18 12:30N 40°38' W 074°03'0 0.1
2018-Feb-18 12:00N 40°38' W 074°03'0 0.2
2018-Feb-18 11:30N 40°37' W 074°03'0 0.1
2018-Feb-18 11:00N 40°37' W 074°03'0 0.2
2018-Feb-18 10:30N 40°37' W 074°04'1 2.5
2018-Feb-18 10:00N 40°36' W 074°03'4 8.6
2018-Feb-18 09:30N 40°32' W 074°02'10 5.0
2018-Feb-18 07:33N 40°33' W 074°15'2 5.6
2018-Feb-18 07:12N 40°34' W 074°13'1 5.8
2018-Feb-18 07:00N 40°35' W 074°13'3 5.5
2018-Feb-18 06:30N 40°38' W 074°12'0 0.3
2018-Feb-18 05:59N 40°38' W 074°12'2 4.7
2018-Feb-18 05:30N 40°39' W 074°09'1 1.9
2018-Feb-18 04:50N 40°38' W 074°08'0 0.0
2018-Feb-18 04:29N 40°38' W 074°08'0 0.0
2018-Feb-18 03:17N 40°38' W 074°08'0 0.0
2018-Feb-18 02:53N 40°38' W 074°08'0 0.0
2018-Feb-18 02:30N 40°38' W 074°08'4 7.9
2018-Feb-18 01:59N 40°37' W 074°03'510.2
2018-Feb-18 01:29N 40°32' W 074°01'4 8.6
2018-Feb-18 01:00N 40°36' W 074°02'1 2.2
2018-Feb-18 00:30N 40°37' W 074°03'3 6.5
2018-Feb-18 00:00N 40°34' W 074°02'3 5.5
2018-Feb-17 23:30N 40°31' W 073°60'0 0.4
2018-Feb-17 23:00N 40°31' W 073°60'2 3.2
2018-Feb-17 22:29N 40°32' W 074°01'4 8.3
2018-Feb-17 22:00N 40°36' W 074°03'4 8.4
2018-Feb-17 21:30N 40°39' W 074°07'0 0.9
2018-Feb-17 20:59N 40°38' W 074°08'0 0.0
2018-Feb-17 20:20N 40°38' W 074°08'0 0.0
2018-Feb-17 19:59N 40°38' W 074°08'0 0.0
2018-Feb-17 19:26N 40°38' W 074°08'0 0.0
2018-Feb-17 18:59N 40°38' W 074°08'0 0.0
2018-Feb-17 18:29N 40°38' W 074°08'0 0.0
2018-Feb-17 17:59N 40°38' W 074°08'0 0.0
2018-Feb-17 17:29N 40°38' W 074°08'0 0.0
2018-Feb-17 16:56N 40°38' W 074°08'0 0.0
2018-Feb-17 16:14N 40°38' W 074°08'0 0.0
2018-Feb-17 15:56N 40°38' W 074°08'0 0.0
2018-Feb-17 15:29N 40°38' W 074°08'0 0.0
2018-Feb-17 14:53N 40°38' W 074°08'0 0.0
2018-Feb-17 14:23N 40°38' W 074°08'0 0.0
2018-Feb-17 13:59N 40°38' W 074°08'0 0.0
2018-Feb-17 13:29N 40°38' W 074°08'0 0.0
2018-Feb-17 12:56N 40°38' W 074°08'1 3.4
2018-Feb-17 12:30N 40°40' W 074°09'1 2.2
2018-Feb-17 12:00N 40°41' W 074°09'1 2.3
2018-Feb-17 11:30N 40°40' W 074°08'1 2.6
2018-Feb-17 11:00N 40°39' W 074°09'3 6.8
2018-Feb-17 10:30N 40°39' W 074°04'3 5.5
2018-Feb-17 10:00N 40°37' W 074°03'1 1.1
2018-Feb-17 09:30N 40°36' W 074°02'2 3.1
2018-Feb-17 09:00N 40°38' W 074°03'4 6.3
2018-Feb-17 08:26N 40°38' W 074°08'0 0.0
2018-Feb-17 07:59N 40°38' W 074°08'0 0.0
2018-Feb-17 07:29N 40°38' W 074°08'0 0.0
2018-Feb-17 06:59N 40°38' W 074°08'0 0.0
2018-Feb-17 06:26N 40°38' W 074°08'2 4.0
2018-Feb-17 06:00N 40°40' W 074°08'2 3.2
2018-Feb-17 05:30N 40°42' W 074°08'0 0.2
2018-Feb-17 04:59N 40°42' W 074°09'0 0.0
2018-Feb-17 04:29N 40°42' W 074°09'0 0.0
2018-Feb-17 03:59N 40°42' W 074°09'0 0.0
2018-Feb-17 03:29N 40°42' W 074°09'0 0.4
2018-Feb-17 03:00N 40°42' W 074°08'0 0.2
2018-Feb-17 02:30N 40°42' W 074°08'1 1.4
2018-Feb-17 02:00N 40°41' W 074°08'2 4.3
2018-Feb-17 01:30N 40°39' W 074°09'1 1.7
2018-Feb-17 00:54N 40°38' W 074°08'0 0.0
2018-Feb-17 00:30N 40°38' W 074°08'0 0.0
2018-Feb-16 23:54N 40°38' W 074°08'1 3.3
2018-Feb-16 23:30N 40°39' W 074°06'5 9.4
2018-Feb-16 23:00N 40°41' W 074°01'1 1.8
2018-Feb-16 22:30N 40°41' W 074°02'4 7.8
2018-Feb-16 22:00N 40°39' W 074°06'1 2.2
2018-Feb-16 21:27N 40°38' W 074°08'0 0.0
2018-Feb-16 20:45N 40°38' W 074°08'0 0.0
2018-Feb-16 19:27N 40°38' W 074°08'0 0.0
2018-Feb-16 18:57N 40°38' W 074°08'0 0.0
2018-Feb-16 18:21N 40°38' W 074°08'0 0.0
2018-Feb-16 17:57N 40°38' W 074°08'0 0.0
2018-Feb-16 17:21N 40°38' W 074°08'0 0.0
2018-Feb-16 16:54N 40°38' W 074°08'0 0.0
2018-Feb-16 16:21N 40°38' W 074°08'0 0.0
2018-Feb-16 15:15N 40°38' W 074°08'0 0.0
2018-Feb-16 14:55N 40°38' W 074°08'3 7.6
2018-Feb-16 14:30N 40°38' W 074°12'6 1.5
2018-Feb-16 10:37N 40°33' W 074°15'2 8.8
2018-Feb-16 10:21N 40°34' W 074°13'4 9.9
2018-Feb-16 09:59N 40°38' W 074°12'3 7.1
2018-Feb-16 09:30N 40°38' W 074°08'0 0.0
2018-Feb-16 09:00N 40°38' W 074°08'0 0.0
2018-Feb-16 08:21N 40°38' W 074°08'0 0.0
2018-Feb-16 08:00N 40°38' W 074°08'0 0.0
2018-Feb-16 07:30N 40°38' W 074°08'0 0.0
2018-Feb-16 07:00N 40°38' W 074°08'0 0.0
2018-Feb-16 06:30N 40°38' W 074°08'0 0.0
2018-Feb-16 04:39N 40°38' W 074°08'0 0.0
2018-Feb-16 04:27N 40°38' W 074°08'0 0.0
2018-Feb-16 04:00N 40°38' W 074°08'0 0.0
2018-Feb-16 03:27N 40°38' W 074°08'0 0.0
2018-Feb-16 03:00N 40°38' W 074°08'0 0.0
2018-Feb-16 02:24N 40°38' W 074°08'0 0.0
2018-Feb-16 02:00N 40°38' W 074°08'0 0.0
2018-Feb-16 01:27N 40°38' W 074°08'3 6.4
2018-Feb-16 01:00N 40°38' W 074°12'1 1.7
2018-Feb-16 00:30N 40°38' W 074°12'0 0.9
2018-Feb-16 00:00N 40°38' W 074°12'3 5.8
2018-Feb-15 23:25N 40°39' W 074°07'2 5.6
2018-Feb-15 23:00N 40°39' W 074°04'1 2.5
2018-Feb-15 22:30N 40°38' W 074°04'0 0.1
2018-Feb-15 22:00N 40°38' W 074°04'1 2.8
2018-Feb-15 21:30N 40°39' W 074°05'3 6.5
2018-Feb-15 21:00N 40°39' W 074°09'3 5.1
2018-Feb-15 20:28N 40°41' W 074°08'0 0.9
2018-Feb-15 20:00N 40°42' W 074°08'3 5.9
2018-Feb-15 19:30N 40°39' W 074°09'1 1.7
2018-Feb-15 18:56N 40°38' W 074°08'0 0.0
2018-Feb-15 18:29N 40°38' W 074°08'0 0.0
2018-Feb-15 17:59N 40°38' W 074°08'0 0.0
2018-Feb-15 17:29N 40°38' W 074°08'0 0.0
2018-Feb-15 17:00N 40°38' W 074°08'2 3.8
2018-Feb-15 16:28N 40°40' W 074°08'1 2.1
2018-Feb-15 16:00N 40°41' W 074°09'1 2.0
2018-Feb-15 15:29N 40°41' W 074°08'2 4.0
2018-Feb-15 14:59N 40°39' W 074°07'0 0.6
2018-Feb-15 14:24N 40°38' W 074°08'0 0.0
2018-Feb-15 13:54N 40°38' W 074°08'0 0.0
2018-Feb-15 13:24N 40°38' W 074°08'0 0.0
2018-Feb-15 12:54N 40°38' W 074°08'0 0.0
2018-Feb-15 12:30N 40°38' W 074°08'0 0.0
2018-Feb-15 12:00N 40°38' W 074°08'3 5.1
2018-Feb-15 11:29N 40°39' W 074°11'0 0.5
2018-Feb-15 11:00N 40°38' W 074°11'2 4.1
2018-Feb-15 10:30N 40°39' W 074°09'2 4.9
2018-Feb-15 10:00N 40°39' W 074°06'2 4.4
2018-Feb-15 09:30N 40°38' W 074°03'4 7.6
2018-Feb-15 09:00N 40°38' W 074°08'0 0.1
2018-Feb-15 08:29N 40°38' W 074°08'0 0.0
2018-Feb-15 07:59N 40°38' W 074°08'1 2.0
2018-Feb-15 07:30N 40°39' W 074°07'0 1.0
2018-Feb-15 07:00N 40°39' W 074°06'0 0.0
2018-Feb-15 06:25N 40°39' W 074°06'1 3.3
2018-Feb-15 05:59N 40°38' W 074°08'0 0.0
2018-Feb-15 05:23N 40°38' W 074°08'0 0.0
2018-Feb-15 04:59N 40°38' W 074°08'0 0.0
2018-Feb-15 04:20N 40°38' W 074°08'0 0.0
2018-Feb-15 03:53N 40°38' W 074°08'0 0.0
2018-Feb-15 03:26N 40°38' W 074°08'0 0.0
2018-Feb-15 02:59N 40°38' W 074°08'0 0.0
2018-Feb-15 02:23N 40°38' W 074°08'0 0.0
2018-Feb-15 02:00N 40°38' W 074°08'4 7.5
2018-Feb-15 01:30N 40°37' W 074°12'2 3.3
2018-Feb-15 01:00N 40°35' W 074°13'0 0.0
2018-Feb-15 00:30N 40°35' W 074°13'0 0.4
2018-Feb-14 23:56N 40°35' W 074°12'2 3.4
2018-Feb-14 23:29N 40°37' W 074°12'2 4.3
2018-Feb-14 23:00N 40°39' W 074°11'3 5.3
2018-Feb-14 22:29N 40°39' W 074°08'3 5.5
2018-Feb-14 22:00N 40°39' W 074°04'2 3.1
2018-Feb-14 21:30N 40°39' W 074°06'2 3.7
2018-Feb-14 20:58N 40°40' W 074°08'1 2.7
2018-Feb-14 20:30N 40°41' W 074°09'1 1.7
2018-Feb-14 20:00N 40°40' W 074°08'2 3.7
2018-Feb-14 19:28N 40°39' W 074°08'3 6.8
2018-Feb-14 19:00N 40°38' W 074°04'1 2.7
2018-Feb-14 18:30N 40°37' W 074°03'2 5.0
2018-Feb-14 18:00N 40°40' W 074°03'4 8.2
2018-Feb-14 17:30N 40°38' W 074°08'0 0.0
2018-Feb-14 16:59N 40°38' W 074°08'2 5.1
2018-Feb-14 16:30N 40°41' W 074°08'1 1.8
2018-Feb-14 16:00N 40°42' W 074°08'2 4.4
2018-Feb-14 15:30N 40°40' W 074°09'1 2.3
2018-Feb-14 14:58N 40°38' W 074°08'0 0.0
2018-Feb-14 14:28N 40°38' W 074°08'0 0.0
2018-Feb-14 13:58N 40°38' W 074°08'0 0.0
2018-Feb-14 13:28N 40°38' W 074°08'0 0.0
2018-Feb-14 12:50N 40°38' W 074°08'2 5.3
2018-Feb-14 12:30N 40°40' W 074°08'1 1.4
2018-Feb-14 12:00N 40°41' W 074°09'2 4.0
2018-Feb-14 11:30N 40°39' W 074°09'2 4.3
2018-Feb-14 11:00N 40°39' W 074°06'2 4.7
2018-Feb-14 10:30N 40°38' W 074°03'1 2.2
2018-Feb-14 10:00N 40°37' W 074°03'3 6.4
2018-Feb-14 09:30N 40°39' W 074°06'2 4.3
2018-Feb-14 09:00N 40°40' W 074°09'0 0.7
2018-Feb-14 08:29N 40°40' W 074°09'1 3.1
2018-Feb-14 08:00N 40°39' W 074°09'1 1.6
2018-Feb-14 07:28N 40°38' W 074°08'0 0.0
2018-Feb-14 06:58N 40°38' W 074°08'0 0.0
2018-Feb-14 05:56N 40°38' W 074°08'2 4.9
2018-Feb-14 05:30N 40°39' W 074°05'0 0.4
2018-Feb-14 05:00N 40°39' W 074°05'2 4.2
2018-Feb-14 04:30N 40°39' W 074°08'0 0.1
2018-Feb-14 03:57N 40°38' W 074°08'0 0.0
2018-Feb-14 03:27N 40°38' W 074°08'0 0.0
2018-Feb-14 02:57N 40°38' W 074°08'0 0.0
2018-Feb-14 02:30N 40°38' W 074°08'0 0.0
2018-Feb-14 00:06N 40°38' W 074°08'0 0.0
2018-Feb-13 23:57N 40°38' W 074°08'0 0.0
2018-Feb-13 23:30N 40°38' W 074°08'0 0.0
2018-Feb-13 23:00N 40°38' W 074°08'0 0.0
2018-Feb-13 22:30N 40°38' W 074°08'3 5.2
2018-Feb-13 22:00N 40°41' W 074°08'0 0.0
2018-Feb-13 21:30N 40°41' W 074°08'0 0.0
2018-Feb-13 21:00N 40°41' W 074°08'1 1.1
2018-Feb-13 20:29N 40°41' W 074°08'2 4.1
2018-Feb-13 20:00N 40°39' W 074°09'1 1.6
2018-Feb-13 19:30N 40°38' W 074°08'0 0.0
2018-Feb-13 19:00N 40°38' W 074°08'2 4.9
2018-Feb-13 18:30N 40°41' W 074°09'0 0.5
2018-Feb-13 18:00N 40°41' W 074°08'0 0.1
2018-Feb-13 17:30N 40°41' W 074°08'3 5.2
2018-Feb-13 17:00N 40°38' W 074°08'0 0.0
2018-Feb-13 15:59N 40°38' W 074°08'0 0.0
2018-Feb-13 15:29N 40°38' W 074°08'0 0.0
2018-Feb-13 14:47N 40°38' W 074°08'0 0.0
2018-Feb-13 14:29N 40°38' W 074°08'0 0.0
2018-Feb-13 13:59N 40°38' W 074°08'0 0.0
2018-Feb-13 13:26N 40°38' W 074°08'0 0.0
2018-Feb-13 13:00N 40°38' W 074°08'0 0.0
2018-Feb-13 12:30N 40°38' W 074°08'2 4.3
2018-Feb-13 12:00N 40°39' W 074°05'0 0.3
2018-Feb-13 11:31N 40°39' W 074°05'1 2.3
2018-Feb-13 11:00N 40°39' W 074°07'0 0.3
2018-Feb-13 10:27N 40°39' W 074°07'0 0.1
2018-Feb-13 10:00N 40°39' W 074°07'2 3.1
2018-Feb-13 09:30N 40°38' W 074°09'2 4.2
2018-Feb-13 09:00N 40°41' W 074°09'2 3.7
2018-Feb-13 08:30N 40°39' W 074°09'1 1.9
2018-Feb-13 07:59N 40°38' W 074°08'0 0.0
2018-Feb-13 07:26N 40°38' W 074°08'0 0.0
2018-Feb-13 06:56N 40°38' W 074°08'0 0.0
2018-Feb-13 06:26N 40°38' W 074°08'0 0.0
2018-Feb-13 05:55N 40°38' W 074°08'0 0.0
2018-Feb-13 05:25N 40°38' W 074°08'0 0.0
2018-Feb-13 04:59N 40°38' W 074°08'0 0.0
2018-Feb-13 04:14N 40°38' W 074°08'0 0.0
2018-Feb-13 03:59N 40°38' W 074°08'0 0.0
2018-Feb-13 03:26N 40°38' W 074°08'0 0.0
2018-Feb-13 02:59N 40°38' W 074°08'1 2.2
2018-Feb-13 02:30N 40°39' W 074°09'1 1.7
2018-Feb-13 02:00N 40°40' W 074°09'2 3.8
2018-Feb-13 01:30N 40°39' W 074°07'3 5.7
2018-Feb-13 01:00N 40°40' W 074°04'1 1.5
2018-Feb-13 00:30N 40°41' W 074°04'0 0.2
2018-Feb-13 00:00N 40°41' W 074°04'1 1.6
2018-Feb-12 23:30N 40°41' W 074°04'2 3.4
2018-Feb-12 23:00N 40°39' W 074°05'0 0.1
2018-Feb-12 22:29N 40°39' W 074°05'1 1.1
2018-Feb-12 22:00N 40°39' W 074°06'2 3.4
2018-Feb-12 21:29N 40°39' W 074°08'1 2.9
2018-Feb-12 21:00N 40°40' W 074°08'1 2.7
2018-Feb-12 20:28N 40°41' W 074°08'2 4.0
2018-Feb-12 20:00N 40°39' W 074°09'1 2.0
2018-Feb-12 19:24N 40°38' W 074°08'0 0.0
2018-Feb-12 18:59N 40°38' W 074°08'0 0.0
2018-Feb-12 18:27N 40°38' W 074°08'2 3.4
2018-Feb-12 18:00N 40°40' W 074°09'0 0.8
2018-Feb-12 17:30N 40°39' W 074°09'3 5.3
2018-Feb-12 17:00N 40°39' W 074°05'4 7.5
2018-Feb-12 16:30N 40°36' W 074°02'1 1.2
2018-Feb-12 16:00N 40°36' W 074°02'0 0.1
2018-Feb-12 15:30N 40°36' W 074°02'3 5.8
2018-Feb-12 15:01N 40°38' W 074°04'3 5.9
2018-Feb-12 14:28N 40°38' W 074°08'0 0.0
2018-Feb-12 13:58N 40°38' W 074°08'0 0.0
2018-Feb-12 13:16N 40°38' W 074°08'2 5.6
2018-Feb-12 12:59N 40°39' W 074°06'510.0
2018-Feb-12 12:30N 40°41' W 074°00'1 1.4
2018-Feb-12 12:01N 40°41' W 074°01'2 4.4
2018-Feb-12 11:30N 40°40' W 074°03'3 6.7
2018-Feb-12 11:00N 40°38' W 074°08'0 0.1
2018-Feb-12 10:27N 40°38' W 074°08'0 0.0
2018-Feb-12 10:00N 40°38' W 074°08'0 0.0
2018-Feb-12 09:30N 40°38' W 074°08'0 0.0
2018-Feb-12 09:00N 40°38' W 074°08'0 0.0
2018-Feb-12 08:30N 40°38' W 074°08'0 0.0
2018-Feb-12 08:00N 40°38' W 074°08'0 0.0
2018-Feb-12 07:30N 40°38' W 074°08'0 0.0
2018-Feb-12 07:00N 40°38' W 074°08'0 0.0
2018-Feb-12 06:30N 40°38' W 074°08'0 0.0
2018-Feb-12 06:00N 40°38' W 074°08'0 0.0
2018-Feb-12 05:27N 40°38' W 074°08'0 0.0
2018-Feb-12 05:00N 40°38' W 074°08'0 0.0
2018-Feb-12 04:30N 40°38' W 074°08'0 0.1
2018-Feb-12 04:00N 40°38' W 074°08'1 2.0
2018-Feb-12 03:30N 40°39' W 074°07'1 1.7
2018-Feb-12 02:54N 40°38' W 074°08'0 0.0
2018-Feb-12 02:30N 40°38' W 074°08'0 0.0
2018-Feb-12 02:00N 40°38' W 074°08'0 0.0
2018-Feb-12 01:30N 40°38' W 074°08'0 0.0
2018-Feb-12 00:54N 40°38' W 074°08'0 0.0
2018-Feb-12 00:24N 40°38' W 074°08'1 1.6
2018-Feb-12 00:00N 40°39' W 074°07'2 3.4
2018-Feb-11 23:30N 40°40' W 074°08'1 1.3
2018-Feb-11 23:00N 40°41' W 074°09'1 2.6
2018-Feb-11 22:30N 40°39' W 074°09'1 1.8
2018-Feb-11 21:52N 40°38' W 074°08'0 0.0
2018-Feb-11 21:28N 40°38' W 074°08'0 0.0
2018-Feb-11 20:58N 40°38' W 074°08'0 0.0
2018-Feb-11 20:19N 40°38' W 074°08'0 0.0
2018-Feb-11 19:55N 40°38' W 074°08'0 0.0
2018-Feb-11 19:28N 40°38' W 074°08'0 0.0
2018-Feb-11 18:58N 40°38' W 074°08'0 0.0
2018-Feb-11 18:28N 40°38' W 074°08'0 0.0
2018-Feb-11 17:58N 40°38' W 074°08'  

Dump ship's entire track history